sensor_id;sensor_type;location;lat;lon;timestamp;temperature;humidity
17464;DHT22;62705;52.400;13.270;2022-08-18T00:01:08;24.60;99.90
17464;DHT22;62705;52.400;13.270;2022-08-18T00:03:36;24.50;99.90
17464;DHT22;62705;52.400;13.270;2022-08-18T00:06:02;25.00;99.90
17464;DHT22;62705;52.400;13.270;2022-08-18T00:08:27;24.50;99.90
17464;DHT22;62705;52.400;13.270;2022-08-18T00:10:53;24.50;99.90
17464;DHT22;62705;52.400;13.270;2022-08-18T00:13:19;24.40;99.90
17464;DHT22;62705;52.400;13.270;2022-08-18T00:15:44;24.40;99.90
17464;DHT22;62705;52.400;13.270;2022-08-18T00:18:10;24.30;99.90
17464;DHT22;62705;52.400;13.270;2022-08-18T00:20:39;24.30;99.90
17464;DHT22;62705;52.400;13.270;2022-08-18T00:23:05;24.10;99.90
17464;DHT22;62705;52.400;13.270;2022-08-18T00:25:31;24.00;99.90
17464;DHT22;62705;52.400;13.270;2022-08-18T00:27:56;24.00;99.90
17464;DHT22;62705;52.400;13.270;2022-08-18T00:30:22;23.90;99.90
17464;DHT22;62705;52.400;13.270;2022-08-18T00:32:50;23.90;99.90
17464;DHT22;62705;52.400;13.270;2022-08-18T00:35:17;23.80;99.90
17464;DHT22;62705;52.400;13.270;2022-08-18T00:37:47;23.70;99.90
17464;DHT22;62705;52.400;13.270;2022-08-18T00:40:16;23.80;99.90
17464;DHT22;62705;52.400;13.270;2022-08-18T00:42:44;24.00;99.90
17464;DHT22;62705;52.400;13.270;2022-08-18T00:45:13;23.90;99.90
17464;DHT22;62705;52.400;13.270;2022-08-18T00:47:40;23.90;99.90
17464;DHT22;62705;52.400;13.270;2022-08-18T00:50:07;24.00;99.90
17464;DHT22;62705;52.400;13.270;2022-08-18T00:52:33;23.90;99.90
17464;DHT22;62705;52.400;13.270;2022-08-18T00:55:01;23.90;99.90
17464;DHT22;62705;52.400;13.270;2022-08-18T00:57:27;23.80;99.90
17464;DHT22;62705;52.400;13.270;2022-08-18T00:59:59;23.70;99.90
17464;DHT22;62705;52.400;13.270;2022-08-18T01:02:30;23.60;99.90
17464;DHT22;62705;52.400;13.270;2022-08-18T01:05:00;23.60;99.90
17464;DHT22;62705;52.400;13.270;2022-08-18T01:07:32;23.60;99.90
17464;DHT22;62705;52.400;13.270;2022-08-18T01:10:01;23.50;99.90
17464;DHT22;62705;52.400;13.270;2022-08-18T01:12:27;23.40;99.90
17464;DHT22;62705;52.400;13.270;2022-08-18T01:14:54;23.40;99.90
17464;DHT22;62705;52.400;13.270;2022-08-18T01:17:20;23.30;99.90
17464;DHT22;62705;52.400;13.270;2022-08-18T01:19:46;23.30;99.90
17464;DHT22;62705;52.400;13.270;2022-08-18T01:22:19;23.30;99.90
17464;DHT22;62705;52.400;13.270;2022-08-18T01:24:49;23.40;99.90
17464;DHT22;62705;52.400;13.270;2022-08-18T01:27:17;23.40;99.90
17464;DHT22;62705;52.400;13.270;2022-08-18T01:29:43;23.50;99.90
17464;DHT22;62705;52.400;13.270;2022-08-18T01:32:09;23.50;99.90
17464;DHT22;62705;52.400;13.270;2022-08-18T01:34:35;23.50;99.90
17464;DHT22;62705;52.400;13.270;2022-08-18T01:37:00;23.60;99.90
17464;DHT22;62705;52.400;13.270;2022-08-18T01:39:26;23.60;99.90
17464;DHT22;62705;52.400;13.270;2022-08-18T01:41:53;23.60;99.90
17464;DHT22;62705;52.400;13.270;2022-08-18T01:44:19;23.60;99.90
17464;DHT22;62705;52.400;13.270;2022-08-18T01:46:44;23.60;99.90
17464;DHT22;62705;52.400;13.270;2022-08-18T01:49:10;23.50;99.90
17464;DHT22;62705;52.400;13.270;2022-08-18T01:51:35;23.40;99.90
17464;DHT22;62705;52.400;13.270;2022-08-18T01:54:02;23.30;99.90
17464;DHT22;62705;52.400;13.270;2022-08-18T01:56:28;23.10;99.90
17464;DHT22;62705;52.400;13.270;2022-08-18T01:58:57;23.00;99.90
17464;DHT22;62705;52.400;13.270;2022-08-18T02:01:23;23.00;99.90
17464;DHT22;62705;52.400;13.270;2022-08-18T02:03:53;22.90;99.90
17464;DHT22;62705;52.400;13.270;2022-08-18T02:06:19;22.80;99.90
17464;DHT22;62705;52.400;13.270;2022-08-18T02:08:46;22.70;99.90
17464;DHT22;62705;52.400;13.270;2022-08-18T02:11:13;22.60;99.90
17464;DHT22;62705;52.400;13.270;2022-08-18T02:13:39;22.60;99.90
17464;DHT22;62705;52.400;13.270;2022-08-18T02:16:06;22.60;99.90
17464;DHT22;62705;52.400;13.270;2022-08-18T02:18:34;22.50;99.90
17464;DHT22;62705;52.400;13.270;2022-08-18T02:21:07;22.50;99.90
17464;DHT22;62705;52.400;13.270;2022-08-18T02:23:33;22.40;99.90
17464;DHT22;62705;52.400;13.270;2022-08-18T02:26:03;22.70;99.90
17464;DHT22;62705;52.400;13.270;2022-08-18T02:28:29;22.30;99.90
17464;DHT22;62705;52.400;13.270;2022-08-18T02:30:55;22.30;99.90
17464;DHT22;62705;52.400;13.270;2022-08-18T02:33:22;22.20;99.90
17464;DHT22;62705;52.400;13.270;2022-08-18T02:35:52;22.10;99.90
17464;DHT22;62705;52.400;13.270;2022-08-18T02:38:18;22.00;99.90
17464;DHT22;62705;52.400;13.270;2022-08-18T02:40:44;22.00;99.90
17464;DHT22;62705;52.400;13.270;2022-08-18T02:43:09;22.00;99.90
17464;DHT22;62705;52.400;13.270;2022-08-18T02:45:35;21.90;99.90
17464;DHT22;62705;52.400;13.270;2022-08-18T02:48:01;21.90;99.90
17464;DHT22;62705;52.400;13.270;2022-08-18T02:50:28;21.80;99.90
17464;DHT22;62705;52.400;13.270;2022-08-18T02:52:54;21.70;99.90
17464;DHT22;62705;52.400;13.270;2022-08-18T02:55:20;21.70;99.90
17464;DHT22;62705;52.400;13.270;2022-08-18T02:57:46;21.60;99.90
17464;DHT22;62705;52.400;13.270;2022-08-18T03:00:15;21.50;99.90
17464;DHT22;62705;52.400;13.270;2022-08-18T03:02:44;21.50;99.90
17464;DHT22;62705;52.400;13.270;2022-08-18T03:05:10;21.40;99.90
17464;DHT22;62705;52.400;13.270;2022-08-18T03:07:37;21.40;99.90
17464;DHT22;62705;52.400;13.270;2022-08-18T03:10:03;21.30;99.90
17464;DHT22;62705;52.400;13.270;2022-08-18T03:12:29;21.30;99.90
17464;DHT22;62705;52.400;13.270;2022-08-18T03:14:55;21.20;99.90
17464;DHT22;62705;52.400;13.270;2022-08-18T03:17:20;21.20;99.90
17464;DHT22;62705;52.400;13.270;2022-08-18T03:19:46;21.10;99.90
17464;DHT22;62705;52.400;13.270;2022-08-18T03:22:11;21.10;99.90
17464;DHT22;62705;52.400;13.270;2022-08-18T03:24:39;21.10;99.90
17464;DHT22;62705;52.400;13.270;2022-08-18T03:27:06;21.10;99.90
17464;DHT22;62705;52.400;13.270;2022-08-18T03:29:32;21.00;99.90
17464;DHT22;62705;52.400;13.270;2022-08-18T03:31:58;21.00;99.90
17464;DHT22;62705;52.400;13.270;2022-08-18T03:34:24;21.00;99.90
17464;DHT22;62705;52.400;13.270;2022-08-18T03:36:50;21.00;99.90
17464;DHT22;62705;52.400;13.270;2022-08-18T03:39:17;21.00;99.90
17464;DHT22;62705;52.400;13.270;2022-08-18T03:41:45;21.00;99.90
17464;DHT22;62705;52.400;13.270;2022-08-18T03:44:11;21.00;99.90
17464;DHT22;62705;52.400;13.270;2022-08-18T03:46:39;21.00;99.90
17464;DHT22;62705;52.400;13.270;2022-08-18T03:49:05;21.00;99.90
17464;DHT22;62705;52.400;13.270;2022-08-18T03:51:31;21.00;99.90
17464;DHT22;62705;52.400;13.270;2022-08-18T03:53:58;21.00;99.90
17464;DHT22;62705;52.400;13.270;2022-08-18T03:56:26;21.00;99.90
17464;DHT22;62705;52.400;13.270;2022-08-18T03:58:56;21.00;99.90
17464;DHT22;62705;52.400;13.270;2022-08-18T04:01:24;21.00;99.90
17464;DHT22;62705;52.400;13.270;2022-08-18T04:03:53;21.00;99.90
17464;DHT22;62705;52.400;13.270;2022-08-18T04:06:21;21.10;99.90
17464;DHT22;62705;52.400;13.270;2022-08-18T04:08:47;21.10;99.90
17464;DHT22;62705;52.400;13.270;2022-08-18T04:11:14;21.10;99.90
17464;DHT22;62705;52.400;13.270;2022-08-18T04:13:40;21.20;99.90
17464;DHT22;62705;52.400;13.270;2022-08-18T04:16:08;21.20;99.90
17464;DHT22;62705;52.400;13.270;2022-08-18T04:18:34;21.40;99.90
17464;DHT22;62705;52.400;13.270;2022-08-18T04:21:00;21.50;99.90
17464;DHT22;62705;52.400;13.270;2022-08-18T04:23:26;21.80;99.90
17464;DHT22;62705;52.400;13.270;2022-08-18T04:25:55;21.70;99.90
17464;DHT22;62705;52.400;13.270;2022-08-18T04:28:21;21.80;99.90
17464;DHT22;62705;52.400;13.270;2022-08-18T04:30:46;21.90;99.90
17464;DHT22;62705;52.400;13.270;2022-08-18T04:33:13;22.00;99.90
17464;DHT22;62705;52.400;13.270;2022-08-18T04:35:39;22.10;99.90
17464;DHT22;62705;52.400;13.270;2022-08-18T04:38:04;22.70;99.90
17464;DHT22;62705;52.400;13.270;2022-08-18T04:40:30;22.40;99.90
17464;DHT22;62705;52.400;13.270;2022-08-18T04:42:56;22.80;99.90
17464;DHT22;62705;52.400;13.270;2022-08-18T04:45:21;22.60;99.90
17464;DHT22;62705;52.400;13.270;2022-08-18T04:47:47;22.80;99.90
17464;DHT22;62705;52.400;13.270;2022-08-18T04:50:14;23.00;99.90
17464;DHT22;62705;52.400;13.270;2022-08-18T04:52:41;23.20;99.90
17464;DHT22;62705;52.400;13.270;2022-08-18T04:55:08;23.30;99.90
17464;DHT22;62705;52.400;13.270;2022-08-18T04:57:33;23.40;99.90
17464;DHT22;62705;52.400;13.270;2022-08-18T05:05:42;23.70;99.90
17464;DHT22;62705;52.400;13.270;2022-08-18T05:08:07;23.80;99.90
17464;DHT22;62705;52.400;13.270;2022-08-18T05:10:34;23.90;99.90
17464;DHT22;62705;52.400;13.270;2022-08-18T05:13:00;23.90;99.90
17464;DHT22;62705;52.400;13.270;2022-08-18T05:15:26;24.30;99.90
17464;DHT22;62705;52.400;13.270;2022-08-18T05:17:52;24.00;99.90
17464;DHT22;62705;52.400;13.270;2022-08-18T05:20:18;24.10;99.90
17464;DHT22;62705;52.400;13.270;2022-08-18T05:22:45;24.10;99.90
17464;DHT22;62705;52.400;13.270;2022-08-18T05:25:11;24.10;99.90
17464;DHT22;62705;52.400;13.270;2022-08-18T05:27:40;24.20;99.90
17464;DHT22;62705;52.400;13.270;2022-08-18T05:30:07;24.30;99.90
17464;DHT22;62705;52.400;13.270;2022-08-18T05:32:34;24.50;99.90
17464;DHT22;62705;52.400;13.270;2022-08-18T05:35:05;24.60;99.90
17464;DHT22;62705;52.400;13.270;2022-08-18T05:37:38;24.70;99.90
17464;DHT22;62705;52.400;13.270;2022-08-18T05:40:09;24.90;99.90
17464;DHT22;62705;52.400;13.270;2022-08-18T05:42:36;25.30;99.90
17464;DHT22;62705;52.400;13.270;2022-08-18T05:45:03;25.10;99.90
17464;DHT22;62705;52.400;13.270;2022-08-18T05:47:32;25.30;99.90
17464;DHT22;62705;52.400;13.270;2022-08-18T05:50:04;25.50;99.90
17464;DHT22;62705;52.400;13.270;2022-08-18T05:52:34;25.70;99.90
17464;DHT22;62705;52.400;13.270;2022-08-18T05:55:05;26.20;99.90
17464;DHT22;62705;52.400;13.270;2022-08-18T05:57:39;27.70;99.90
17464;DHT22;62705;52.400;13.270;2022-08-18T06:00:07;29.80;99.90
17464;DHT22;62705;52.400;13.270;2022-08-18T06:02:37;31.90;99.90
17464;DHT22;62705;52.400;13.270;2022-08-18T06:05:07;33.60;95.60
17464;DHT22;62705;52.400;13.270;2022-08-18T06:07:36;34.70;88.40
17464;DHT22;62705;52.400;13.270;2022-08-18T06:10:07;35.00;85.50
17464;DHT22;62705;52.400;13.270;2022-08-18T06:12:37;34.60;84.80
17464;DHT22;62705;52.400;13.270;2022-08-18T06:15:09;34.80;83.70
17464;DHT22;62705;52.400;13.270;2022-08-18T06:18:08;35.30;81.60
17464;DHT22;62705;52.400;13.270;2022-08-18T06:20:55;36.10;77.60
17464;DHT22;62705;52.400;13.270;2022-08-18T06:23:33;36.00;75.80
17464;DHT22;62705;52.400;13.270;2022-08-18T06:26:08;36.00;75.30
17464;DHT22;62705;52.400;13.270;2022-08-18T06:28:47;36.40;73.20
17464;DHT22;62705;52.400;13.270;2022-08-18T06:31:19;36.00;74.50
17464;DHT22;62705;52.400;13.270;2022-08-18T06:33:54;35.90;73.40
17464;DHT22;62705;52.400;13.270;2022-08-18T06:36:27;35.60;74.70
17464;DHT22;62705;52.400;13.270;2022-08-18T06:39:03;35.00;75.80
17464;DHT22;62705;52.400;13.270;2022-08-18T06:41:36;34.70;76.00
17464;DHT22;62705;52.400;13.270;2022-08-18T06:44:08;34.20;77.90
17464;DHT22;62705;52.400;13.270;2022-08-18T06:46:40;33.60;79.00
17464;DHT22;62705;52.400;13.270;2022-08-18T06:49:08;33.40;78.90
17464;DHT22;62705;52.400;13.270;2022-08-18T06:51:34;33.00;79.90
17464;DHT22;62705;52.400;13.270;2022-08-18T06:54:04;32.70;81.00
17464;DHT22;62705;52.400;13.270;2022-08-18T06:56:45;32.60;82.30
17464;DHT22;62705;52.400;13.270;2022-08-18T06:59:20;32.50;82.70
17464;DHT22;62705;52.400;13.270;2022-08-18T07:01:49;32.40;83.00
17464;DHT22;62705;52.400;13.270;2022-08-18T07:04:37;32.40;83.60
17464;DHT22;62705;52.400;13.270;2022-08-18T07:07:28;32.30;83.70
17464;DHT22;62705;52.400;13.270;2022-08-18T07:09:54;32.20;83.50
17464;DHT22;62705;52.400;13.270;2022-08-18T07:12:22;32.20;84.40
17464;DHT22;62705;52.400;13.270;2022-08-18T07:14:53;32.40;85.70
17464;DHT22;62705;52.400;13.270;2022-08-18T07:17:22;32.00;86.40
17464;DHT22;62705;52.400;13.270;2022-08-18T07:20:00;32.00;87.10
17464;DHT22;62705;52.400;13.270;2022-08-18T07:22:27;31.90;88.50
17464;DHT22;62705;52.400;13.270;2022-08-18T07:24:54;31.80;87.10
17464;DHT22;62705;52.400;13.270;2022-08-18T07:27:22;31.80;87.00
17464;DHT22;62705;52.400;13.270;2022-08-18T07:30:08;31.70;87.80
17464;DHT22;62705;52.400;13.270;2022-08-18T07:32:36;31.70;87.00
17464;DHT22;62705;52.400;13.270;2022-08-18T07:35:07;31.70;87.40
17464;DHT22;62705;52.400;13.270;2022-08-18T07:37:38;31.70;88.50
17464;DHT22;62705;52.400;13.270;2022-08-18T07:40:09;31.70;86.50
17464;DHT22;62705;52.400;13.270;2022-08-18T07:42:40;31.70;87.10
17464;DHT22;62705;52.400;13.270;2022-08-18T07:45:15;31.70;87.30
17464;DHT22;62705;52.400;13.270;2022-08-18T07:47:50;31.70;86.90
17464;DHT22;62705;52.400;13.270;2022-08-18T07:50:18;31.70;87.00
17464;DHT22;62705;52.400;13.270;2022-08-18T07:52:47;31.70;86.50
17464;DHT22;62705;52.400;13.270;2022-08-18T07:55:23;31.70;86.20
17464;DHT22;62705;52.400;13.270;2022-08-18T07:57:57;31.80;86.20
17464;DHT22;62705;52.400;13.270;2022-08-18T08:00:33;31.90;86.40
17464;DHT22;62705;52.400;13.270;2022-08-18T08:03:09;32.00;85.70
17464;DHT22;62705;52.400;13.270;2022-08-18T08:05:48;32.10;85.80
17464;DHT22;62705;52.400;13.270;2022-08-18T08:08:18;32.40;86.00
17464;DHT22;62705;52.400;13.270;2022-08-18T08:10:49;32.50;84.80
17464;DHT22;62705;52.400;13.270;2022-08-18T08:13:22;32.30;83.20
17464;DHT22;62705;52.400;13.270;2022-08-18T08:15:58;32.40;85.50
17464;DHT22;62705;52.400;13.270;2022-08-18T08:18:36;32.50;83.30
17464;DHT22;62705;52.400;13.270;2022-08-18T08:21:07;32.50;84.10
17464;DHT22;62705;52.400;13.270;2022-08-18T08:23:40;32.40;84.80
17464;DHT22;62705;52.400;13.270;2022-08-18T08:26:39;32.10;87.10
17464;DHT22;62705;52.400;13.270;2022-08-18T08:29:13;31.70;88.50
17464;DHT22;62705;52.400;13.270;2022-08-18T08:31:48;31.50;89.40
17464;DHT22;62705;52.400;13.270;2022-08-18T08:34:17;31.30;90.50
17464;DHT22;62705;52.400;13.270;2022-08-18T08:36:46;31.30;90.80
17464;DHT22;62705;52.400;13.270;2022-08-18T08:39:17;31.40;89.90
17464;DHT22;62705;52.400;13.270;2022-08-18T08:41:46;31.70;88.30
17464;DHT22;62705;52.400;13.270;2022-08-18T08:44:17;31.90;86.40
17464;DHT22;62705;52.400;13.270;2022-08-18T08:46:49;31.80;87.10
17464;DHT22;62705;52.400;13.270;2022-08-18T08:49:26;31.80;89.90
17464;DHT22;62705;52.400;13.270;2022-08-18T08:51:55;31.30;90.70
17464;DHT22;62705;52.400;13.270;2022-08-18T08:54:25;31.70;88.50
17464;DHT22;62705;52.400;13.270;2022-08-18T08:56:55;31.60;89.00
17464;DHT22;62705;52.400;13.270;2022-08-18T08:59:24;32.00;90.00
17464;DHT22;62705;52.400;13.270;2022-08-18T09:02:14;31.30;90.00
17464;DHT22;62705;52.400;13.270;2022-08-18T09:04:46;31.40;90.90
17464;DHT22;62705;52.400;13.270;2022-08-18T09:07:25;31.80;88.50
17464;DHT22;62705;52.400;13.270;2022-08-18T09:10:09;32.30;86.90
17464;DHT22;62705;52.400;13.270;2022-08-18T09:12:51;32.50;86.50
17464;DHT22;62705;52.400;13.270;2022-08-18T09:18:28;32.50;83.90
17464;DHT22;62705;52.400;13.270;2022-08-18T09:21:03;32.10;87.00
17464;DHT22;62705;52.400;13.270;2022-08-18T09:23:33;32.10;88.40
17464;DHT22;62705;52.400;13.270;2022-08-18T09:26:25;32.40;86.70
17464;DHT22;62705;52.400;13.270;2022-08-18T09:28:54;32.10;87.00
17464;DHT22;62705;52.400;13.270;2022-08-18T09:31:20;32.00;86.80
17464;DHT22;62705;52.400;13.270;2022-08-18T09:34:06;32.00;87.90
17464;DHT22;62705;52.400;13.270;2022-08-18T09:36:42;32.30;87.50
17464;DHT22;62705;52.400;13.270;2022-08-18T09:39:21;32.00;87.90
17464;DHT22;62705;52.400;13.270;2022-08-18T09:41:54;31.90;88.10
17464;DHT22;62705;52.400;13.270;2022-08-18T09:48:02;32.40;86.90
17464;DHT22;62705;52.400;13.270;2022-08-18T10:00:17;32.90;84.90
17464;DHT22;62705;52.400;13.270;2022-08-18T10:03:22;33.00;84.80
17464;DHT22;62705;52.400;13.270;2022-08-18T10:06:11;33.00;84.80
17464;DHT22;62705;52.400;13.270;2022-08-18T10:09:01;33.10;84.80
17464;DHT22;62705;52.400;13.270;2022-08-18T10:11:40;33.10;84.90
17464;DHT22;62705;52.400;13.270;2022-08-18T10:14:30;32.80;85.70
17464;DHT22;62705;52.400;13.270;2022-08-18T10:17:04;32.70;86.10
17464;DHT22;62705;52.400;13.270;2022-08-18T10:19:40;33.10;85.80
17464;DHT22;62705;52.400;13.270;2022-08-18T10:22:09;33.50;84.40
17464;DHT22;62705;52.400;13.270;2022-08-18T10:24:39;33.80;82.40
17464;DHT22;62705;52.400;13.270;2022-08-18T10:27:10;34.00;81.80
17464;DHT22;62705;52.400;13.270;2022-08-18T10:29:52;34.40;79.60
17464;DHT22;62705;52.400;13.270;2022-08-18T10:32:45;34.20;77.60
17464;DHT22;62705;52.400;13.270;2022-08-18T10:37:56;33.50;80.50
17464;DHT22;62705;52.400;13.270;2022-08-18T10:40:22;33.20;81.80
17464;DHT22;62705;52.400;13.270;2022-08-18T10:42:52;33.10;82.70
17464;DHT22;62705;52.400;13.270;2022-08-18T10:45:25;33.00;82.10
17464;DHT22;62705;52.400;13.270;2022-08-18T10:48:06;32.90;82.10
17464;DHT22;62705;52.400;13.270;2022-08-18T10:50:39;32.50;81.80
17464;DHT22;62705;52.400;13.270;2022-08-18T10:53:11;32.50;82.80
17464;DHT22;62705;52.400;13.270;2022-08-18T10:55:47;32.40;82.60
17464;DHT22;62705;52.400;13.270;2022-08-18T10:58:35;32.30;81.50
17464;DHT22;62705;52.400;13.270;2022-08-18T11:01:10;32.20;81.60
17464;DHT22;62705;52.400;13.270;2022-08-18T11:03:52;32.10;81.50
17464;DHT22;62705;52.400;13.270;2022-08-18T11:06:24;32.20;81.50
17464;DHT22;62705;52.400;13.270;2022-08-18T11:08:55;32.40;81.60
17464;DHT22;62705;52.400;13.270;2022-08-18T11:11:23;32.30;79.20
17464;DHT22;62705;52.400;13.270;2022-08-18T11:13:55;32.40;78.90
17464;DHT22;62705;52.400;13.270;2022-08-18T11:16:35;32.70;78.00
17464;DHT22;62705;52.400;13.270;2022-08-18T11:19:07;32.90;77.10
17464;DHT22;62705;52.400;13.270;2022-08-18T11:21:38;33.20;77.40
17464;DHT22;62705;52.400;13.270;2022-08-18T11:24:09;33.40;77.00
17464;DHT22;62705;52.400;13.270;2022-08-18T11:26:38;33.50;76.10
17464;DHT22;62705;52.400;13.270;2022-08-18T11:29:27;33.50;75.70
17464;DHT22;62705;52.400;13.270;2022-08-18T11:32:05;33.40;75.20
17464;DHT22;62705;52.400;13.270;2022-08-18T11:34:35;33.30;75.30
17464;DHT22;62705;52.400;13.270;2022-08-18T11:37:06;33.20;75.10
17464;DHT22;62705;52.400;13.270;2022-08-18T11:39:41;33.30;75.20
17464;DHT22;62705;52.400;13.270;2022-08-18T11:42:07;33.40;75.00
17464;DHT22;62705;52.400;13.270;2022-08-18T11:44:37;33.50;73.90
17464;DHT22;62705;52.400;13.270;2022-08-18T11:47:14;33.60;73.40
17464;DHT22;62705;52.400;13.270;2022-08-18T11:49:56;33.80;72.90
17464;DHT22;62705;52.400;13.270;2022-08-18T11:52:25;34.10;72.20
17464;DHT22;62705;52.400;13.270;2022-08-18T11:54:59;34.20;71.40
17464;DHT22;62705;52.400;13.270;2022-08-18T11:57:48;34.00;70.70
17464;DHT22;62705;52.400;13.270;2022-08-18T12:00:39;33.90;70.40
17464;DHT22;62705;52.400;13.270;2022-08-18T12:03:11;34.00;70.90
17464;DHT22;62705;52.400;13.270;2022-08-18T12:05:43;34.10;71.10
17464;DHT22;62705;52.400;13.270;2022-08-18T12:08:19;34.30;70.30
17464;DHT22;62705;52.400;13.270;2022-08-18T12:10:46;34.50;69.60
17464;DHT22;62705;52.400;13.270;2022-08-18T12:13:21;35.10;68.90
17464;DHT22;62705;52.400;13.270;2022-08-18T12:15:46;35.20;67.00
17464;DHT22;62705;52.400;13.270;2022-08-18T12:18:12;35.40;67.60
17464;DHT22;62705;52.400;13.270;2022-08-18T12:20:38;35.60;67.10
17464;DHT22;62705;52.400;13.270;2022-08-18T12:23:04;35.50;64.60
17464;DHT22;62705;52.400;13.270;2022-08-18T12:25:30;35.60;64.60
17464;DHT22;62705;52.400;13.270;2022-08-18T12:27:57;35.40;64.20
17464;DHT22;62705;52.400;13.270;2022-08-18T12:30:22;35.50;64.00
17464;DHT22;62705;52.400;13.270;2022-08-18T12:32:48;35.50;64.90
17464;DHT22;62705;52.400;13.270;2022-08-18T12:35:13;35.30;66.50
17464;DHT22;62705;52.400;13.270;2022-08-18T12:37:42;35.10;67.70
17464;DHT22;62705;52.400;13.270;2022-08-18T12:40:09;34.90;68.80
17464;DHT22;62705;52.400;13.270;2022-08-18T12:42:35;34.80;69.20
17464;DHT22;62705;52.400;13.270;2022-08-18T12:45:03;34.70;69.60
17464;DHT22;62705;52.400;13.270;2022-08-18T12:47:28;34.70;69.10
17464;DHT22;62705;52.400;13.270;2022-08-18T12:49:54;34.60;69.20
17464;DHT22;62705;52.400;13.270;2022-08-18T12:52:20;34.50;68.10
17464;DHT22;62705;52.400;13.270;2022-08-18T12:54:45;34.40;69.00
17464;DHT22;62705;52.400;13.270;2022-08-18T12:57:18;34.30;69.10
17464;DHT22;62705;52.400;13.270;2022-08-18T12:59:44;34.30;68.70
17464;DHT22;62705;52.400;13.270;2022-08-18T13:02:11;34.20;69.10
17464;DHT22;62705;52.400;13.270;2022-08-18T13:04:37;34.20;69.20
17464;DHT22;62705;52.400;13.270;2022-08-18T13:07:04;34.10;69.10
17464;DHT22;62705;52.400;13.270;2022-08-18T13:09:31;34.10;69.40
17464;DHT22;62705;52.400;13.270;2022-08-18T13:11:57;33.90;69.50
17464;DHT22;62705;52.400;13.270;2022-08-18T13:14:23;33.70;69.30
17464;DHT22;62705;52.400;13.270;2022-08-18T13:16:48;33.60;70.00
17464;DHT22;62705;52.400;13.270;2022-08-18T13:19:15;33.70;69.10
17464;DHT22;62705;52.400;13.270;2022-08-18T13:21:41;33.90;68.70
17464;DHT22;62705;52.400;13.270;2022-08-18T13:24:08;34.40;68.20
17464;DHT22;62705;52.400;13.270;2022-08-18T13:26:36;35.20;66.50
17464;DHT22;62705;52.400;13.270;2022-08-18T13:29:03;35.40;64.70
17464;DHT22;62705;52.400;13.270;2022-08-18T13:31:29;35.10;67.00
17464;DHT22;62705;52.400;13.270;2022-08-18T13:33:55;35.10;67.80
17464;DHT22;62705;52.400;13.270;2022-08-18T13:36:22;35.20;67.30
17464;DHT22;62705;52.400;13.270;2022-08-18T13:38:49;35.30;64.50
17464;DHT22;62705;52.400;13.270;2022-08-18T13:41:15;34.90;66.30
17464;DHT22;62705;52.400;13.270;2022-08-18T13:43:42;35.10;67.10
17464;DHT22;62705;52.400;13.270;2022-08-18T13:46:08;35.60;65.00
17464;DHT22;62705;52.400;13.270;2022-08-18T13:48:34;35.70;63.30
17464;DHT22;62705;52.400;13.270;2022-08-18T13:51:02;35.30;64.10
17464;DHT22;62705;52.400;13.270;2022-08-18T13:53:31;35.60;64.20
17464;DHT22;62705;52.400;13.270;2022-08-18T13:55:56;35.50;64.30
17464;DHT22;62705;52.400;13.270;2022-08-18T13:58:22;35.70;62.90
17464;DHT22;62705;52.400;13.270;2022-08-18T14:00:48;35.90;62.50
17464;DHT22;62705;52.400;13.270;2022-08-18T14:03:15;36.10;62.90
17464;DHT22;62705;52.400;13.270;2022-08-18T14:05:40;36.30;62.90
17464;DHT22;62705;52.400;13.270;2022-08-18T14:08:06;36.40;62.60
17464;DHT22;62705;52.400;13.270;2022-08-18T14:10:33;36.50;63.30
17464;DHT22;62705;52.400;13.270;2022-08-18T14:12:59;36.40;63.80
17464;DHT22;62705;52.400;13.270;2022-08-18T14:15:25;36.60;63.40
17464;DHT22;62705;52.400;13.270;2022-08-18T14:17:51;36.60;64.10
17464;DHT22;62705;52.400;13.270;2022-08-18T14:20:17;36.60;64.50
17464;DHT22;62705;52.400;13.270;2022-08-18T14:22:43;36.50;63.80
17464;DHT22;62705;52.400;13.270;2022-08-18T14:25:09;36.30;64.30
17464;DHT22;62705;52.400;13.270;2022-08-18T14:27:37;35.90;64.40
17464;DHT22;62705;52.400;13.270;2022-08-18T14:30:06;35.50;67.40
17464;DHT22;62705;52.400;13.270;2022-08-18T14:32:32;35.30;68.30
17464;DHT22;62705;52.400;13.270;2022-08-18T14:35:00;35.20;68.30
17464;DHT22;62705;52.400;13.270;2022-08-18T14:37:26;35.10;69.10
17464;DHT22;62705;52.400;13.270;2022-08-18T14:39:52;35.20;68.60
17464;DHT22;62705;52.400;13.270;2022-08-18T14:42:18;35.20;68.20
17464;DHT22;62705;52.400;13.270;2022-08-18T14:44:45;35.40;68.40
17464;DHT22;62705;52.400;13.270;2022-08-18T14:47:11;35.30;67.70
17464;DHT22;62705;52.400;13.270;2022-08-18T14:49:37;35.30;67.90
17464;DHT22;62705;52.400;13.270;2022-08-18T14:52:03;35.30;68.20
17464;DHT22;62705;52.400;13.270;2022-08-18T14:54:29;35.40;67.70
17464;DHT22;62705;52.400;13.270;2022-08-18T14:56:55;35.20;67.60
17464;DHT22;62705;52.400;13.270;2022-08-18T14:59:20;35.20;68.50
17464;DHT22;62705;52.400;13.270;2022-08-18T15:01:47;35.20;68.30
17464;DHT22;62705;52.400;13.270;2022-08-18T15:04:13;34.90;68.30
17464;DHT22;62705;52.400;13.270;2022-08-18T15:06:38;34.80;68.00
17464;DHT22;62705;52.400;13.270;2022-08-18T15:09:04;34.30;68.40
17464;DHT22;62705;52.400;13.270;2022-08-18T15:11:30;34.30;69.20
17464;DHT22;62705;52.400;13.270;2022-08-18T15:13:55;34.20;69.00
17464;DHT22;62705;52.400;13.270;2022-08-18T15:16:21;34.00;69.90
17464;DHT22;62705;52.400;13.270;2022-08-18T15:18:48;33.90;69.60
17464;DHT22;62705;52.400;13.270;2022-08-18T15:21:14;33.70;70.30
17464;DHT22;62705;52.400;13.270;2022-08-18T15:23:40;33.80;70.30
17464;DHT22;62705;52.400;13.270;2022-08-18T15:26:06;33.70;70.80
17464;DHT22;62705;52.400;13.270;2022-08-18T15:28:31;33.70;71.10
17464;DHT22;62705;52.400;13.270;2022-08-18T15:30:57;33.60;71.90
17464;DHT22;62705;52.400;13.270;2022-08-18T15:33:23;33.30;73.10
17464;DHT22;62705;52.400;13.270;2022-08-18T15:35:50;33.10;74.10
17464;DHT22;62705;52.400;13.270;2022-08-18T15:38:17;33.10;74.20
17464;DHT22;62705;52.400;13.270;2022-08-18T15:40:47;33.20;73.90
17464;DHT22;62705;52.400;13.270;2022-08-18T15:43:13;33.30;73.40
17464;DHT22;62705;52.400;13.270;2022-08-18T15:45:41;33.00;73.60
17464;DHT22;62705;52.400;13.270;2022-08-18T15:48:06;33.00;74.10
17464;DHT22;62705;52.400;13.270;2022-08-18T15:50:32;33.10;73.60
17464;DHT22;62705;52.400;13.270;2022-08-18T15:53:01;33.00;74.10
17464;DHT22;62705;52.400;13.270;2022-08-18T15:55:28;32.90;74.10